LEIBGCXO

Guest
Details From LEIB - Ibiza
To GCXO - Tenerife Norte - Los Rodeos
Flight Number -
Tags Generated
Created
Modified
Stats Distance 1,080 nm / 2,000 km
Max Altitude 0 ft / 0 m
Waypoints 4
Social Downloads 3
Likes 0
Share VATSIM

Download

Looking for another format? Having issues loading an existing format? Contact us
Advertisement - Login to hide

Notes

Generated

Route

LEIB LAKAM TFN GCXO

ID Type Via Altitude Latitude Longitude Leg Dist Tot Dist Heading (true) Name
O LEIB APT - 0 ft / 0 m 38.86694˚ 1.35887˚ - 0 nm - -
LAKAM FIX - 0 ft / 0 m 34.18861˚ -7.71444˚ 519 nm 519 nm 240° / 235° -
TFN VOR - 0 ft / 0 m 28.53683˚ -16.26878˚ 554 nm 1074 nm 235° / 230° TENERIFE NORTE VOR-DME
O GCXO APT - 0 ft / 0 m 28.48804˚ -16.35776˚ 5 nm 1079 nm 238° / 238° -

Altitude Profile

Advertisement - Login to hide

Weather


0- 5 10 15 20 25 30 35+ Temperature / ° C

Clouds and Precipitation
Forecast for 2018-05-21 00:00 UTC. Updated 3 hours ago

Ground ~20,000 ft ~40,000 ft Winds

LEIB

Details ICAO LEIB (IBZ)
Name Ibiza
Region Spain
Timezone Europe/Madrid (UTC+2.0)
Stats Elevation 20 ft / 6 m (AMSL)
Location 38.872871° 1.373045°
Runways 1
Magnetic Variation 0.709° E

METAR

LEIB 210200Z 33003KT 300V010 9999 FEW035 15/13 Q1012 NOSIG

Decode

TAF

TAF LEIB 202000Z 2021/2121 20005KT 9999 FEW020 SCT040 TX21/2112Z TN14/2106Z BECMG 2110/2112 23012KT

Decode

Departure Runways

ID Width Length Bearing (true) Bearing (mag) Surface Threshold Offset Overrun Length
06 148 ft / 45 m 9,153 ft / 2,790 m 61.85° 61.14° Asphalt 0 ft / 0 m 213 ft / 65 m
24 148 ft / 45 m 9,153 ft / 2,790 m 241.86° 241.15° Asphalt 0 ft / 0 m 197 ft / 60 m

GCXO

Details ICAO GCXO (TFN)
Name Tenerife Norte - Los Rodeos
Region Canary Islands
Timezone Atlantic/Canary (UTC+1.0)
Stats Elevation 2,076 ft / 633 m (AMSL)
Location 28.482656° -16.341541°
Runways 1
Magnetic Variation 4.952° W

METAR

GCXO 210200Z AUTO 31010KT 9999 OVC020/// 13/09 Q1017

Decode

TAF

TAF GCXO 202000Z 2021/2121 31014KT 9999 BKN020 TX18/2115Z TN12/2105Z PROB40 TEMPO 2021/2109 4900 BCFG BKN005

Decode

Destination Runways

ID Width Length Bearing (true) Bearing (mag) Surface Threshold Offset Overrun Length
12 148 ft / 45 m 11,165 ft / 3,403 m 110.67° 115.62° Asphalt 0 ft / 0 m 197 ft / 60 m
30 148 ft / 45 m 11,165 ft / 3,403 m 290.69° 295.64° Asphalt 0 ft / 0 m 197 ft / 60 m

Approach Navaids

Runway Type Ident Frequency Range Bearing (true) Bearing (mag) Slope Elevation
12 Localiser INOR 108.70 MHz 18 nm / 33 km 110.69° 115.64° - 3,356 ft / 1,023 m (AMSL)
12 Glidescope INOR 108.70 MHz 10 nm / 19 km 110.68° 115.63° 3.00° 2,070 ft / 631 m (AMSL)
12 DME INOR 108.70 MHz 18 nm / 33 km - - - 2,070 ft / 631 m (AMSL)
30 Localiser ITF 110.30 MHz 18 nm / 33 km 290.67° 295.62° - 2,025 ft / 617 m (AMSL)
30 Glidescope ITF 110.30 MHz 10 nm / 19 km 290.68° 295.63° 3.00° 2,025 ft / 617 m (AMSL)
30 DME ITF 110.30 MHz 18 nm / 33 km - - - 2,031 ft / 619 m (AMSL)

Popular Alternatives